Time;durP1;ratioP1;P1;durP2;ratioP2;P2;SDS_P1;SDS_P2;PMS_P1;PMS_P2;Temp;Humidity;BMP_temperature;BMP_pressure;BME280_temperature;BME280_humidity;BME280_pressure;Samples;Min_cycle;Max_cycle;Signal;HPM_P1;HPM_P2
2021/11/01 00:00:53;;;;;;;;;2.75;2.75;;;;;;;;5054047;28;45386;-75
2021/11/01 00:03:18;;;;;;;;;1.00;1.00;;;;;;;;5051498;28;45446;-74
2021/11/01 00:05:45;;;;;;;;;4.50;2.50;;;;;;;;5052562;28;46308;-74
2021/11/01 00:08:10;;;;;;;;;5.50;2.25;;;;;;;;5052512;28;45513;-74
2021/11/01 00:10:35;;;;;;;;;4.00;4.00;;;;;;;;5054284;28;45319;-74
2021/11/01 00:13:01;;;;;;;;;1.50;0.75;;;;;;;;5055471;28;45272;-74
2021/11/01 00:15:26;;;;;;;;;1.75;1.75;;;;;;;;5055048;28;47239;-74
2021/11/01 00:17:51;;;;;;;;;2.50;1.00;;;;;;;;5056694;28;45533;-74
2021/11/01 00:20:18;;;;;;;;;1.75;0.50;;;;;;;;5055985;28;46092;-74
2021/11/01 00:22:43;;;;;;;;;3.25;2.00;;;;;;;;5055990;28;45463;-74
2021/11/01 00:25:09;;;;;;;;;4.50;3.75;;;;;;;;5058023;28;45356;-74
2021/11/01 00:27:34;;;;;;;;;3.25;2.75;;;;;;;;5055490;28;45301;-74
2021/11/01 00:29:59;;;;;;;;;2.00;1.00;;;;;;;;5055274;28;45297;-74
2021/11/01 00:32:25;;;;;;;;;5.25;2.25;;;;;;;;5055809;28;45459;-74
2021/11/01 00:34:50;;;;;;;;;4.25;2.00;;;;;;;;5055636;28;45514;-74
2021/11/01 00:37:15;;;;;;;;;4.00;3.50;;;;;;;;5057150;28;45454;-74
2021/11/01 00:39:41;;;;;;;;;5.75;2.75;;;;;;;;5038344;28;45477;-74
2021/11/01 00:42:06;;;;;;;;;3.25;2.75;;;;;;;;5055474;28;45465;-74
2021/11/01 00:44:32;;;;;;;;;5.00;4.00;;;;;;;;5054905;28;46032;-74
2021/11/01 00:47:00;;;;;;;;;2.00;2.00;;;;;;;;5055221;28;45465;-74
2021/11/01 00:49:27;;;;;;;;;5.50;5.00;;;;;;;;5055391;28;45378;-74
2021/11/01 00:51:54;;;;;;;;;1.50;1.50;;;;;;;;5055071;28;45447;-74
2021/11/01 00:54:19;;;;;;;;;3.00;1.75;;;;;;;;5053272;28;47205;-74
2021/11/01 00:56:44;;;;;;;;;7.75;3.75;;;;;;;;5053426;28;45589;-74
2021/11/01 00:59:10;;;;;;;;;2.00;2.00;;;;;;;;5054946;28;45482;-73
2021/11/01 01:01:35;;;;;;;;;3.00;1.50;;;;;;;;5055255;28;45571;-75
2021/11/01 01:04:01;;;;;;;;;2.00;2.00;;;;;;;;5057236;28;45456;-75
2021/11/01 01:06:26;;;;;;;;;3.00;1.75;;;;;;;;5036819;28;45576;-73
2021/11/01 01:08:51;;;;;;;;;5.50;3.00;;;;;;;;5055100;28;45439;-73
2021/11/01 01:11:17;;;;;;;;;0.25;0.25;;;;;;;;5055159;28;45430;-73
2021/11/01 01:13:43;;;;;;;;;3.75;1.00;;;;;;;;5054482;28;46392;-73
2021/11/01 01:18:36;;;;;;;;;3.00;1.00;;;;;;;;5055679;28;45450;-75
2021/11/01 01:22:10;;;;;;;;;3.50;2.50;;;;;;;;5054704;28;45591;-75
2021/11/01 01:23:47;;;;;;;;;3.00;2.00;;;;;;;;5053220;28;46017;-75
2021/11/01 01:26:14;;;;;;;;;0.75;0.75;;;;;;;;5053607;28;45431;-74
2021/11/01 01:28:40;;;;;;;;;1.50;1.25;;;;;;;;5039146;28;45371;-75
2021/11/01 01:31:06;;;;;;;;;1.00;1.00;;;;;;;;5057080;28;46293;-74
2021/11/01 01:33:32;;;;;;;;;6.75;1.50;;;;;;;;5052942;28;46268;-75
2021/11/01 01:35:57;;;;;;;;;4.00;1.00;;;;;;;;5052905;28;45396;-75
2021/11/01 01:38:22;;;;;;;;;3.00;1.00;;;;;;;;5054734;28;45425;-75
2021/11/01 01:40:47;;;;;;;;;1.75;1.25;;;;;;;;5054442;28;45224;-74
2021/11/01 01:43:12;;;;;;;;;2.50;2.25;;;;;;;;5056016;28;45993;-74
2021/11/01 01:45:38;;;;;;;;;3.50;3.00;;;;;;;;5054980;28;45424;-74
2021/11/01 01:48:04;;;;;;;;;5.75;2.00;;;;;;;;5054410;28;45328;-73
2021/11/01 01:50:29;;;;;;;;;4.75;2.00;;;;;;;;5054274;28;45431;-74
2021/11/01 01:52:55;;;;;;;;;4.00;1.00;;;;;;;;5053986;28;46638;-74
2021/11/01 01:55:21;;;;;;;;;2.00;2.00;;;;;;;;5054596;28;45321;-74
2021/11/01 01:57:51;;;;;;;;;4.00;1.00;;;;;;;;5055936;28;45351;-74
2021/11/01 02:00:50;;;;;;;;;5.25;2.75;;;;;;;;5054062;28;45237;-74
2021/11/01 02:03:16;;;;;;;;;2.25;2.00;;;;;;;;5054014;28;47238;-74
2021/11/01 02:05:49;;;;;;;;;2.75;2.00;;;;;;;;5054083;28;45512;-75
2021/11/01 02:08:16;;;;;;;;;3.25;1.00;;;;;;;;5054624;28;45384;-74
2021/11/01 02:10:46;;;;;;;;;5.25;3.00;;;;;;;;5052158;28;45345;-74
2021/11/01 02:13:17;;;;;;;;;7.75;2.00;;;;;;;;5055745;28;46570;-74
2021/11/01 02:15:50;;;;;;;;;1.25;1.25;;;;;;;;5054642;28;45281;-75
2021/11/01 02:18:17;;;;;;;;;2.25;2.00;;;;;;;;5054149;28;45367;-75
2021/11/01 02:20:59;;;;;;;;;2.25;2.25;;;;;;;;5054127;28;45447;-74
2021/11/01 02:23:35;;;;;;;;;1.25;1.25;;;;;;;;5053776;28;47250;-73
2021/11/01 02:26:03;;;;;;;;;4.00;1.00;;;;;;;;5051823;28;45998;-73
2021/11/01 02:28:33;;;;;;;;;2.00;2.00;;;;;;;;5053779;28;45558;-73
2021/11/01 02:31:00;;;;;;;;;1.00;1.00;;;;;;;;5055406;28;45443;-73
2021/11/01 02:33:25;;;;;;;;;1.00;1.00;;;;;;;;5053453;28;46202;-73
2021/11/01 02:35:52;;;;;;;;;5.00;1.75;;;;;;;;5053032;28;45343;-74
2021/11/01 02:38:19;;;;;;;;;2.00;2.00;;;;;;;;5053848;28;45415;-73
2021/11/01 02:40:47;;;;;;;;;1.75;1.75;;;;;;;;5053805;28;45510;-73
2021/11/01 02:43:14;;;;;;;;;2.75;2.00;;;;;;;;5055067;28;45379;-73
2021/11/01 02:45:39;;;;;;;;;2.25;1.50;;;;;;;;5052613;28;45294;-73
2021/11/01 02:48:05;;;;;;;;;0.00;0.00;;;;;;;;5053392;28;45394;-73
2021/11/01 02:50:30;;;;;;;;;2.25;2.00;;;;;;;;5051980;28;48979;-73
2021/11/01 02:52:56;;;;;;;;;2.75;1.00;;;;;;;;5051635;28;46901;-73
2021/11/01 02:55:21;;;;;;;;;0.75;0.75;;;;;;;;5054169;28;45952;-73
2021/11/01 02:57:47;;;;;;;;;3.25;2.00;;;;;;;;5054427;28;45570;-73
2021/11/01 03:00:13;;;;;;;;;0.75;0.75;;;;;;;;5053123;28;45519;-73
2021/11/01 03:02:39;;;;;;;;;1.25;1.25;;;;;;;;5052801;28;46408;-73
2021/11/01 03:05:06;;;;;;;;;1.00;1.00;;;;;;;;5053326;28;45544;-73
2021/11/01 03:07:31;;;;;;;;;3.00;3.00;;;;;;;;5052926;28;45513;-73
2021/11/01 03:09:57;;;;;;;;;3.75;2.75;;;;;;;;5055173;28;45578;-74
2021/11/01 03:12:25;;;;;;;;;2.50;1.25;;;;;;;;5052977;28;45727;-74
2021/11/01 03:14:53;;;;;;;;;3.00;1.25;;;;;;;;5052859;28;45464;-74
2021/11/01 03:17:20;;;;;;;;;1.00;1.00;;;;;;;;5053157;28;45416;-74
2021/11/01 03:19:48;;;;;;;;;4.50;1.75;;;;;;;;5053514;28;45375;-74
2021/11/01 03:22:14;;;;;;;;;1.00;1.00;;;;;;;;5054105;28;45407;-74
2021/11/01 03:24:40;;;;;;;;;1.75;1.00;;;;;;;;5053734;28;45377;-73
2021/11/01 03:27:06;;;;;;;;;3.50;2.25;;;;;;;;5052895;28;45564;-72
2021/11/01 03:29:33;;;;;;;;;1.75;1.75;;;;;;;;5051298;28;45316;-73
2021/11/01 03:32:00;;;;;;;;;3.00;1.00;;;;;;;;5051443;28;46245;-73
2021/11/01 03:34:26;;;;;;;;;0.00;0.00;;;;;;;;5052937;28;45503;-73
2021/11/01 03:36:53;;;;;;;;;1.00;1.00;;;;;;;;5052592;28;45349;-75
2021/11/01 03:39:19;;;;;;;;;0.75;0.75;;;;;;;;5052553;28;45497;-74
2021/11/01 03:41:44;;;;;;;;;2.00;2.00;;;;;;;;5052532;28;45365;-72
2021/11/01 03:44:16;;;;;;;;;2.75;1.25;;;;;;;;5052916;28;45439;-72
2021/11/01 03:46:45;;;;;;;;;1.00;1.00;;;;;;;;5037554;28;45318;-72
2021/11/01 03:49:12;;;;;;;;;2.25;1.25;;;;;;;;5057876;28;45452;-73
2021/11/01 03:54:05;;;;;;;;;4.25;2.75;;;;;;;;5055751;28;45533;-73
2021/11/01 03:56:31;;;;;;;;;1.00;1.00;;;;;;;;5056044;28;45505;-73
2021/11/01 03:58:56;;;;;;;;;3.75;2.00;;;;;;;;5056289;28;45411;-72
2021/11/01 04:01:22;;;;;;;;;2.00;0.75;;;;;;;;5056856;28;46128;-74
2021/11/01 04:03:48;;;;;;;;;1.00;1.00;;;;;;;;5057598;28;45487;-74
2021/11/01 04:06:14;;;;;;;;;1.00;1.00;;;;;;;;5055770;28;45427;-75
2021/11/01 04:08:40;;;;;;;;;3.00;1.50;;;;;;;;5054600;28;45388;-75
2021/11/01 04:11:05;;;;;;;;;2.00;2.00;;;;;;;;5054595;28;45432;-74
2021/11/01 04:13:30;;;;;;;;;2.00;1.00;;;;;;;;5056398;28;45515;-72
2021/11/01 04:16:00;;;;;;;;;0.25;0.00;;;;;;;;5058103;28;45402;-74
2021/11/01 04:18:30;;;;;;;;;2.00;2.00;;;;;;;;5056136;28;45464;-75
2021/11/01 04:20:56;;;;;;;;;0.00;0.00;;;;;;;;5055597;28;49194;-74
2021/11/01 04:23:26;;;;;;;;;2.50;1.00;;;;;;;;5055539;28;45363;-74
2021/11/01 04:25:51;;;;;;;;;2.25;1.00;;;;;;;;5056058;28;45298;-74
2021/11/01 04:28:16;;;;;;;;;2.75;1.00;;;;;;;;5057062;28;45458;-74
2021/11/01 04:30:44;;;;;;;;;5.00;1.75;;;;;;;;5056363;28;47025;-74
2021/11/01 04:33:13;;;;;;;;;1.75;0.50;;;;;;;;5055828;28;45346;-74
2021/11/01 04:35:39;;;;;;;;;2.00;1.00;;;;;;;;5057719;28;45287;-74
2021/11/01 04:54:12;;;;;;;;;1.50;0.00;;;;;;;;5055006;28;45419;-73
2021/11/01 04:56:37;;;;;;;;;1.75;0.00;;;;;;;;5055291;28;45567;-75
2021/11/01 04:59:03;;;;;;;;;0.00;0.00;;;;;;;;5055436;28;45319;-73
2021/11/01 05:01:36;;;;;;;;;0.00;0.00;;;;;;;;5055587;28;46127;-75
2021/11/01 05:04:08;;;;;;;;;0.25;0.25;;;;;;;;5057053;28;45274;-74
2021/11/01 05:06:36;;;;;;;;;1.00;0.00;;;;;;;;5037170;28;45530;-74
2021/11/01 05:09:16;;;;;;;;;0.50;0.00;;;;;;;;5055431;28;45439;-73
2021/11/01 05:20:04;;;;;;;;;1.00;1.00;;;;;;;;4977449;28;45451;-73
2021/11/01 05:22:33;;;;;;;;;1.00;0.00;;;;;;;;4991666;28;45426;-74
2021/11/01 05:25:05;;;;;;;;;0.00;0.00;;;;;;;;4990459;28;45330;-74
2021/11/01 05:27:46;;;;;;;;;0.00;0.00;;;;;;;;4987163;28;45390;-74
2021/11/01 05:30:16;;;;;;;;;2.00;0.50;;;;;;;;4988546;28;45440;-74
2021/11/01 05:32:44;;;;;;;;;1.75;1.25;;;;;;;;4987529;28;45431;-73
2021/11/01 05:35:09;;;;;;;;;2.00;0.00;;;;;;;;4988484;28;45460;-73
2021/11/01 05:37:35;;;;;;;;;4.00;1.00;;;;;;;;4975392;28;45342;-74
2021/11/01 05:40:00;;;;;;;;;1.00;1.00;;;;;;;;4978654;28;45534;-75
2021/11/01 05:42:26;;;;;;;;;0.00;0.00;;;;;;;;4982260;28;45488;-74
2021/11/01 05:44:51;;;;;;;;;1.00;1.00;;;;;;;;4980244;28;45544;-74
2021/11/01 05:47:16;;;;;;;;;0.50;0.50;;;;;;;;4979901;28;45501;-74
2021/11/01 05:49:41;;;;;;;;;0.00;0.00;;;;;;;;4975699;28;45471;-74
2021/11/01 05:52:16;;;;;;;;;0.00;0.00;;;;;;;;5023769;28;45962;-74
2021/11/01 05:54:44;;;;;;;;;0.75;0.75;;;;;;;;5053594;28;45374;-73
2021/11/01 05:57:23;;;;;;;;;2.75;1.00;;;;;;;;5054233;28;45584;-75
2021/11/01 06:13:31;;;;;;;;;3.25;0.75;;;;;;;;4974009;28;46057;-74
2021/11/01 06:15:57;;;;;;;;;1.75;0.25;;;;;;;;4973703;28;45471;-74
2021/11/01 06:18:32;;;;;;;;;1.00;0.00;;;;;;;;4969729;28;45369;-74
2021/11/01 06:20:57;;;;;;;;;2.00;0.00;;;;;;;;4973851;28;45494;-74
2021/11/01 06:23:23;;;;;;;;;0.00;0.00;;;;;;;;4969126;28;45610;-73
2021/11/01 06:25:51;;;;;;;;;1.00;0.00;;;;;;;;4973844;28;45486;-74
2021/11/01 06:28:17;;;;;;;;;1.00;0.00;;;;;;;;4973805;28;45402;-73
2021/11/01 06:30:51;;;;;;;;;1.00;0.00;;;;;;;;4969319;28;45366;-73
2021/11/01 06:52:59;;;;;;;;;0.25;0.25;;;;;;;;4972792;28;45440;-74
2021/11/01 06:55:42;;;;;;;;;1.00;1.00;;;;;;;;4971880;28;46418;-74
2021/11/01 07:14:30;;;;;;;;;1.00;1.00;;;;;;;;4971171;28;45610;-76
2021/11/01 07:17:01;;;;;;;;;1.00;1.00;;;;;;;;4957851;28;46502;-77
2021/11/01 07:19:36;;;;;;;;;1.00;1.00;;;;;;;;4971727;28;45456;-77
2021/11/01 08:38:03;;;;;;;;;0.50;0.50;;;;;;;;5054152;28;45344;-74
2021/11/01 08:48:52;;;;;;;;;2.50;1.00;;;;;;;;5054441;28;45396;-77
2021/11/01 09:18:45;;;;;;;;;0.00;0.00;;;;;;;;5054134;28;45437;-75
2021/11/01 09:35:41;;;;;;;;;0.00;0.00;;;;;;;;5054676;28;45390;-73
2021/11/01 09:36:15;;;;;;;;;0.50;0.00;;;;;;;;5053202;28;45695;-75
2021/11/01 09:41:26;;;;;;;;;0.00;0.00;;;;;;;;5055237;28;45281;-79
2021/11/01 09:43:56;;;;;;;;;1.00;1.00;;;;;;;;5053605;28;45343;-73
2021/11/01 09:46:22;;;;;;;;;0.00;0.00;;;;;;;;5052904;28;46086;-74
2021/11/01 09:48:52;;;;;;;;;0.75;0.00;;;;;;;;5054299;28;45415;-73
2021/11/01 09:51:18;;;;;;;;;0.25;0.25;;;;;;;;5053388;28;45499;-73
2021/11/01 09:53:47;;;;;;;;;0.00;0.00;;;;;;;;5052912;28;45755;-73
2021/11/01 09:56:29;;;;;;;;;1.00;0.00;;;;;;;;5052949;28;46960;-73
2021/11/01 09:59:12;;;;;;;;;0.00;0.00;;;;;;;;5037477;28;45398;-73
2021/11/01 10:01:38;;;;;;;;;0.75;0.75;;;;;;;;5053278;28;45378;-73
2021/11/01 10:04:12;;;;;;;;;0.75;0.75;;;;;;;;5054682;28;45324;-73
2021/11/01 10:06:37;;;;;;;;;0.00;0.00;;;;;;;;5055869;28;48187;-72
2021/11/01 10:09:04;;;;;;;;;0.25;0.25;;;;;;;;5046603;28;45336;-73
2021/11/01 10:11:37;;;;;;;;;1.00;1.00;;;;;;;;5052914;28;45537;-74
2021/11/01 10:14:04;;;;;;;;;0.00;0.00;;;;;;;;5052669;28;45415;-73
2021/11/01 10:19:48;;;;;;;;;1.00;0.00;;;;;;;;5051717;28;45419;-73
2021/11/01 10:22:24;;;;;;;;;1.33;0.33;;;;;;;;5033694;28;45491;-72
2021/11/01 10:24:50;;;;;;;;;1.00;1.00;;;;;;;;5054562;28;45411;-73
2021/11/01 10:27:26;;;;;;;;;0.00;0.00;;;;;;;;5052742;28;46000;-73
2021/11/01 10:29:59;;;;;;;;;1.75;0.00;;;;;;;;5052195;28;45325;-73
2021/11/01 10:32:26;;;;;;;;;0.00;0.00;;;;;;;;5052813;28;45442;-74
2021/11/01 10:34:53;;;;;;;;;0.00;0.00;;;;;;;;5052912;28;45374;-74
2021/11/01 10:37:18;;;;;;;;;0.00;0.00;;;;;;;;5052813;28;46418;-73
2021/11/01 10:39:52;;;;;;;;;1.00;0.00;;;;;;;;5052221;28;45312;-73
2021/11/01 10:42:25;;;;;;;;;1.00;1.00;;;;;;;;5050445;28;45456;-71
2021/11/01 11:14:40;;;;;;;;;0.00;0.00;;;;;;;;5051566;28;45217;-72
2021/11/01 11:25:14;;;;;;;;;3.33;0.00;;;;;;;;4977167;28;45451;-73
2021/11/01 11:37:17;;;;;;;;;1.00;0.00;;;;;;;;4979378;28;45454;-70
2021/11/01 11:47:42;;;;;;;;;0.67;0.33;;;;;;;;4978885;28;45477;-76
2021/11/01 11:50:08;;;;;;;;;0.00;0.00;;;;;;;;4988480;28;45853;-80
2021/11/01 11:52:35;;;;;;;;;0.00;0.00;;;;;;;;4991876;28;47513;-87
2021/11/01 11:55:06;;;;;;;;;0.00;0.00;;;;;;;;4977630;28;45574;-75
2021/11/01 11:57:35;;;;;;;;;0.00;0.00;;;;;;;;4990482;28;45368;-78
2021/11/01 12:00:03;;;;;;;;;0.00;0.00;;;;;;;;4984787;28;45525;-77
2021/11/01 12:02:38;;;;;;;;;2.00;1.00;;;;;;;;5020639;28;46101;-79
2021/11/01 12:05:17;;;;;;;;;0.00;0.00;;;;;;;;5052191;28;45348;-72
2021/11/01 12:07:51;;;;;;;;;8.75;7.50;;;;;;;;5036963;28;45483;-78
2021/11/01 12:10:47;;;;;;;;;0.67;0.67;;;;;;;;5056001;28;45340;-75
2021/11/01 12:13:24;;;;;;;;;1.00;0.00;;;;;;;;5055900;28;45446;-77
2021/11/01 12:18:38;;;;;;;;;0.00;0.00;;;;;;;;5054897;28;45469;-75
2021/11/01 12:21:04;;;;;;;;;2.25;0.75;;;;;;;;5055338;28;46248;-79
2021/11/01 12:23:34;;;;;;;;;1.00;1.00;;;;;;;;5054059;28;46246;-75
2021/11/01 12:26:06;;;;;;;;;2.50;2.50;;;;;;;;5055299;28;45402;-73
2021/11/01 12:28:32;;;;;;;;;1.00;1.00;;;;;;;;5054890;28;45273;-73
2021/11/01 12:30:58;;;;;;;;;0.00;0.00;;;;;;;;5056753;28;45456;-72
2021/11/01 12:33:23;;;;;;;;;3.00;0.00;;;;;;;;5054085;28;46244;-71
2021/11/01 12:35:52;;;;;;;;;0.50;0.50;;;;;;;;5052465;28;45919;-73
2021/11/01 12:38:28;;;;;;;;;0.50;0.50;;;;;;;;5053145;28;45514;-72
2021/11/01 12:41:01;;;;;;;;;0.00;0.00;;;;;;;;5054131;28;47889;-70
2021/11/01 12:49:23;;;;;;;;;0.00;0.00;;;;;;;;5053081;28;45459;-70
2021/11/01 12:57:30;;;;;;;;;0.25;0.25;;;;;;;;4992868;28;45477;-72
2021/11/01 12:59:56;;;;;;;;;1.00;1.00;;;;;;;;4993180;28;45507;-73
2021/11/01 13:02:26;;;;;;;;;1.50;1.50;;;;;;;;4993092;28;45601;-72
2021/11/01 13:04:51;;;;;;;;;4.25;2.00;;;;;;;;4993364;28;47066;-73
2021/11/01 13:10:15;;;;;;;;;0.50;0.50;;;;;;;;4994247;28;45465;-72
2021/11/01 13:18:12;;;;;;;;;1.50;0.50;;;;;;;;4948303;28;45589;-73
2021/11/01 13:20:38;;;;;;;;;1.75;0.75;;;;;;;;4942839;28;45524;-72
2021/11/01 13:23:05;;;;;;;;;0.00;0.00;;;;;;;;4941465;28;45360;-74
2021/11/01 13:25:40;;;;;;;;;0.00;0.00;;;;;;;;4938123;28;46389;-73
2021/11/01 13:28:24;;;;;;;;;1.00;1.00;;;;;;;;4939751;28;45429;-73
2021/11/01 13:34:46;;;;;;;;;0.00;0.00;;;;;;;;4966862;28;45484;-73
2021/11/01 13:36:38;;;;;;;;;1.00;1.00;;;;;;;;4972824;28;45479;-73
2021/11/01 13:39:08;;;;;;;;;0.25;0.25;;;;;;;;4973191;28;45379;-72
2021/11/01 13:41:34;;;;;;;;;0.00;0.00;;;;;;;;4973667;28;45473;-72
2021/11/01 13:44:06;;;;;;;;;1.00;1.00;;;;;;;;4972614;28;45530;-72
2021/11/01 13:46:31;;;;;;;;;1.25;1.25;;;;;;;;4973310;28;46227;-72
2021/11/01 13:48:58;;;;;;;;;1.75;1.00;;;;;;;;4973673;28;45914;-72
2021/11/01 13:51:23;;;;;;;;;4.00;2.00;;;;;;;;4973598;28;45434;-73
2021/11/01 13:54:06;;;;;;;;;0.50;0.50;;;;;;;;4973178;28;45479;-73
2021/11/01 13:56:41;;;;;;;;;1.00;1.00;;;;;;;;5042274;28;47228;-73
2021/11/01 13:59:12;;;;;;;;;0.75;0.00;;;;;;;;5052855;28;45431;-72
2021/11/01 14:02:04;;;;;;;;;1.00;1.00;;;;;;;;5035544;28;45737;-71
2021/11/01 14:15:47;;;;;;;;;3.00;0.75;;;;;;;;5052357;28;45409;-75
2021/11/01 14:26:47;;;;;;;;;0.75;0.75;;;;;;;;5037583;28;45370;-75
2021/11/01 14:32:08;;;;;;;;;1.75;1.00;;;;;;;;5051954;28;45551;-75
2021/11/01 15:01:31;;;;;;;;;0.00;0.00;;;;;;;;5053996;28;45968;-72
2021/11/01 15:09:24;;;;;;;;;0.00;0.00;;;;;;;;5051788;28;45530;-71
2021/11/01 16:19:11;;;;;;;;;1.00;1.00;;;;;;;;4989916;28;45417;-71
2021/11/01 16:21:37;;;;;;;;;1.25;1.25;;;;;;;;5048937;28;45421;-72
2021/11/01 16:24:02;;;;;;;;;6.00;6.00;;;;;;;;5054728;28;45439;-69
2021/11/01 16:26:29;;;;;;;;;2.00;2.00;;;;;;;;5053878;28;46999;-71
2021/11/01 16:29:03;;;;;;;;;1.00;1.00;;;;;;;;5052778;28;45392;-71
2021/11/01 16:31:33;;;;;;;;;2.00;2.00;;;;;;;;5055643;28;45431;-72
2021/11/01 16:34:13;;;;;;;;;0.00;0.00;;;;;;;;5055457;28;45509;-72
2021/11/01 16:39:21;;;;;;;;;2.00;1.00;;;;;;;;5053818;28;45422;-72
2021/11/01 16:41:47;;;;;;;;;2.25;1.00;;;;;;;;5053658;28;45429;-72
2021/11/01 16:44:30;;;;;;;;;1.75;1.75;;;;;;;;5053197;28;45394;-71
2021/11/01 16:46:56;;;;;;;;;3.00;2.50;;;;;;;;5038637;28;45528;-72
2021/11/01 16:49:21;;;;;;;;;0.75;0.75;;;;;;;;5054542;28;45298;-71
2021/11/01 16:51:47;;;;;;;;;1.75;1.75;;;;;;;;5054773;28;45331;-70
2021/11/01 16:54:19;;;;;;;;;4.25;2.00;;;;;;;;5052780;28;45410;-74
2021/11/01 17:04:46;;;;;;;;;2.00;2.00;;;;;;;;5050828;28;45412;-69
2021/11/01 17:08:19;;;;;;;;;2.00;2.00;;;;;;;;5050715;28;45511;-70
2021/11/01 18:51:54;;;;;;;;;5.50;4.25;;;;;;;;4991555;28;45417;-71
2021/11/01 18:54:24;;;;;;;;;8.75;5.75;;;;;;;;4992526;28;45210;-71
2021/11/01 18:56:51;;;;;;;;;4.00;3.00;;;;;;;;4991898;28;46225;-72
2021/11/01 18:59:16;;;;;;;;;6.25;5.00;;;;;;;;4991034;28;45502;-73
2021/11/01 19:01:43;;;;;;;;;9.00;7.00;;;;;;;;4992366;28;45567;-71
2021/11/01 19:04:16;;;;;;;;;6.50;5.25;;;;;;;;4992760;28;45349;-70
2021/11/01 19:07:09;;;;;;;;;4.00;4.00;;;;;;;;4990062;28;47069;-72
2021/11/01 19:13:16;;;;;;;;;5.00;5.00;;;;;;;;4953887;28;45409;-72
2021/11/01 20:03:05;;;;;;;;;7.00;7.00;;;;;;;;5030860;28;45564;-69
2021/11/01 20:05:46;;;;;;;;;11.50;11.25;;;;;;;;5031474;28;45411;-70
2021/11/01 20:08:37;;;;;;;;;8.00;8.00;;;;;;;;5031799;28;45421;-70
2021/11/01 21:27:10;;;;;;;;;8.25;6.75;;;;;;;;5056739;28;45482;-75
2021/11/01 21:29:36;;;;;;;;;6.50;6.50;;;;;;;;5054258;28;45455;-73
2021/11/01 21:32:02;;;;;;;;;4.50;3.50;;;;;;;;5054464;28;45498;-74
2021/11/01 21:34:31;;;;;;;;;4.00;3.00;;;;;;;;5054759;28;45282;-73
2021/11/01 21:36:56;;;;;;;;;3.50;3.25;;;;;;;;5054450;28;45411;-74
2021/11/01 21:39:21;;;;;;;;;4.00;4.00;;;;;;;;5054538;28;46014;-76
2021/11/01 21:41:47;;;;;;;;;4.50;3.25;;;;;;;;5054131;28;45281;-76
2021/11/01 21:44:12;;;;;;;;;5.25;5.00;;;;;;;;5053863;28;45541;-76
2021/11/01 21:46:37;;;;;;;;;3.25;3.25;;;;;;;;5055531;28;45428;-75
2021/11/01 21:49:02;;;;;;;;;3.00;2.00;;;;;;;;5056776;28;45557;-74
2021/11/01 21:51:29;;;;;;;;;3.00;3.00;;;;;;;;5054559;28;45309;-74
2021/11/01 21:54:15;;;;;;;;;3.50;3.00;;;;;;;;5055095;28;45475;-75
2021/11/01 21:56:42;;;;;;;;;2.25;2.25;;;;;;;;5054220;28;45272;-77
2021/11/01 22:09:45;;;;;;;;;7.50;6.50;;;;;;;;5054537;28;45347;-76
2021/11/01 22:18:55;;;;;;;;;2.75;1.25;;;;;;;;4973198;28;45425;-73
2021/11/01 22:21:18;;;;;;;;;4.25;3.00;;;;;;;;4970257;28;45957;-75
2021/11/01 22:45:21;;;;;;;;;4.00;4.00;;;;;;;;4992850;28;45527;-74
2021/11/01 22:58:27;;;;;;;;;8.00;5.50;;;;;;;;4993118;28;45357;-74
2021/11/01 23:00:59;;;;;;;;;5.00;5.00;;;;;;;;4993477;28;45563;-74
2021/11/01 23:03:32;;;;;;;;;6.50;5.75;;;;;;;;4992773;28;46466;-75
2021/11/01 23:06:14;;;;;;;;;6.50;3.50;;;;;;;;4993029;28;45525;-75
2021/11/01 23:33:20;;;;;;;;;1.00;1.00;;;;;;;;5053504;28;45334;-74
2021/11/01 23:35:45;;;;;;;;;1.50;1.00;;;;;;;;5034911;28;45574;-75
2021/11/01 23:38:10;;;;;;;;;4.00;2.50;;;;;;;;5051494;28;45293;-74
2021/11/01 23:40:35;;;;;;;;;3.00;3.00;;;;;;;;5053337;28;45632;-74
2021/11/01 23:43:00;;;;;;;;;4.75;1.75;;;;;;;;5053427;28;45518;-74
2021/11/01 23:45:26;;;;;;;;;4.50;2.00;;;;;;;;5052894;28;46098;-75
2021/11/01 23:47:51;;;;;;;;;3.75;1.25;;;;;;;;5052973;28;45394;-75
2021/11/01 23:50:16;;;;;;;;;2.00;1.25;;;;;;;;5053081;28;45278;-75
2021/11/01 23:52:53;;;;;;;;;3.00;2.00;;;;;;;;5053420;28;45257;-74
2021/11/01 23:55:18;;;;;;;;;2.75;2.25;;;;;;;;5050831;28;47109;-75
2021/11/01 23:57:44;;;;;;;;;8.25;2.50;;;;;;;;5035471;28;45394;-73
